createdAt,value
2023-03-27T00:00:47.967Z,1001.16
2023-03-27T00:01:47.996Z,1001.19
2023-03-27T00:02:48.067Z,1001.23
2023-03-27T00:03:47.978Z,1001.23
2023-03-27T00:04:47.952Z,1001.24
2023-03-27T00:05:47.909Z,1001.20
2023-03-27T00:06:47.893Z,1001.27
2023-03-27T00:07:47.889Z,1001.31
2023-03-27T00:08:47.868Z,1001.33
2023-03-27T00:09:47.857Z,1001.39
2023-03-27T00:10:47.846Z,1001.40
2023-03-27T00:11:47.839Z,1001.42
2023-03-27T00:12:47.835Z,1001.43
2023-03-27T00:13:50.337Z,1001.47
2023-03-27T00:14:47.803Z,1001.47
2023-03-27T00:15:47.788Z,1001.53
2023-03-27T00:16:47.782Z,1001.56
2023-03-27T00:17:47.843Z,1001.56
2023-03-27T00:18:47.766Z,1001.57
2023-03-27T00:19:47.739Z,1001.60
2023-03-27T00:20:47.729Z,1001.58
2023-03-27T00:21:47.716Z,1001.58
2023-03-27T00:22:47.702Z,1001.57
2023-03-27T00:23:47.690Z,1001.61
2023-03-27T00:24:47.681Z,1001.65
2023-03-27T00:25:47.665Z,1001.65
2023-03-27T00:26:47.655Z,1001.66
2023-03-27T00:27:47.640Z,1001.63
2023-03-27T00:28:47.627Z,1001.67
2023-03-27T00:29:47.621Z,1001.68
2023-03-27T00:30:47.686Z,1001.72
2023-03-27T00:31:47.589Z,1001.71
2023-03-27T00:32:47.607Z,1001.72
2023-03-27T00:33:47.567Z,1001.75
2023-03-27T00:34:47.559Z,1001.72
2023-03-27T00:35:47.707Z,1001.75
2023-03-27T00:36:47.531Z,1001.78
2023-03-27T00:37:47.518Z,1001.79
2023-03-27T00:38:47.506Z,1001.80
2023-03-27T00:39:47.492Z,1001.79
2023-03-27T00:40:47.543Z,1001.83
2023-03-27T00:41:47.478Z,1001.80
2023-03-27T00:42:47.454Z,1001.80
2023-03-27T00:43:47.444Z,1001.82
2023-03-27T00:44:47.432Z,1001.81
2023-03-27T00:45:47.451Z,1001.84
2023-03-27T00:46:47.424Z,1001.84
2023-03-27T00:47:47.468Z,1001.84
2023-03-27T00:48:47.410Z,1001.85
2023-03-27T00:49:47.368Z,1001.87
2023-03-27T00:50:47.360Z,1001.90
2023-03-27T00:51:47.426Z,1001.93
2023-03-27T00:52:47.344Z,1001.93
2023-03-27T00:53:47.320Z,1001.93
2023-03-27T00:54:47.310Z,1001.94
2023-03-27T00:55:47.297Z,1001.93
2023-03-27T00:56:47.348Z,1001.93
2023-03-27T00:57:47.273Z,1002.02
2023-03-27T00:58:47.257Z,1001.99
2023-03-27T00:59:47.246Z,1002.04
2023-03-27T01:00:47.236Z,1002.07
2023-03-27T01:01:47.239Z,1002.13
2023-03-27T01:02:47.276Z,1002.11
2023-03-27T01:03:47.481Z,1002.16
2023-03-27T01:04:47.187Z,1002.17
2023-03-27T01:05:47.174Z,1002.22
2023-03-27T01:06:47.162Z,1002.25
2023-03-27T01:08:00.859Z,1002.26
2023-03-27T01:08:47.183Z,1002.33
2023-03-27T01:09:47.116Z,1002.35
2023-03-27T01:10:47.107Z,1002.35
2023-03-27T01:11:47.092Z,1002.37
2023-03-27T01:12:47.085Z,1002.41
2023-03-27T01:13:47.161Z,1002.42
2023-03-27T01:14:47.053Z,1002.39
2023-03-27T01:15:47.079Z,1002.39
2023-03-27T01:16:47.042Z,1002.36
2023-03-27T01:17:47.072Z,1002.34
2023-03-27T01:18:47.070Z,1002.35
2023-03-27T01:19:46.993Z,1002.36
2023-03-27T01:20:46.989Z,1002.34
2023-03-27T01:21:46.964Z,1002.39
2023-03-27T01:22:46.977Z,1002.36
2023-03-27T01:23:59.940Z,1002.39
2023-03-27T01:24:46.930Z,1002.42
2023-03-27T01:25:46.927Z,1002.41
2023-03-27T01:26:46.910Z,1002.44
2023-03-27T01:27:46.891Z,1002.46
2023-03-27T01:28:46.883Z,1002.52
2023-03-27T01:29:46.882Z,1002.58
2023-03-27T01:30:46.854Z,1002.52
2023-03-27T01:31:46.876Z,1002.55
2023-03-27T01:32:46.869Z,1002.55
2023-03-27T01:33:46.814Z,1002.57
2023-03-27T01:34:46.838Z,1002.60
2023-03-27T01:35:46.805Z,1002.57
2023-03-27T01:36:46.780Z,1002.56
2023-03-27T01:37:46.765Z,1002.60
2023-03-27T01:38:46.750Z,1002.63
2023-03-27T01:39:46.737Z,1002.62
2023-03-27T01:40:46.728Z,1002.63
2023-03-27T01:41:46.716Z,1002.68
2023-03-27T01:42:46.706Z,1002.68
2023-03-27T01:43:46.688Z,1002.67
2023-03-27T01:44:46.674Z,1002.73
2023-03-27T01:45:46.666Z,1002.71
2023-03-27T01:46:46.690Z,1002.71
2023-03-27T01:47:46.676Z,1002.70
2023-03-27T01:48:46.633Z,1002.69
2023-03-27T01:49:46.611Z,1002.70
2023-03-27T01:50:46.626Z,1002.68
2023-03-27T01:51:46.592Z,1002.69
2023-03-27T01:52:46.574Z,1002.76
2023-03-27T01:53:46.563Z,1002.73
2023-03-27T01:54:46.575Z,1002.74
2023-03-27T01:55:46.544Z,1002.75
2023-03-27T01:56:46.541Z,1002.75
2023-03-27T01:57:49.102Z,1002.77
2023-03-27T01:58:46.497Z,1002.73
2023-03-27T01:59:46.509Z,1002.78
2023-03-27T02:00:51.034Z,1002.84
2023-03-27T02:01:46.517Z,1002.81
2023-03-27T02:02:46.465Z,1002.85
2023-03-27T02:03:46.449Z,1002.84
2023-03-27T02:04:46.440Z,1002.84
2023-03-27T02:05:46.414Z,1002.86
2023-03-27T02:06:46.398Z,1002.87
2023-03-27T02:07:46.384Z,1002.90
2023-03-27T02:08:46.374Z,1002.90
2023-03-27T02:09:46.363Z,1002.92
2023-03-27T02:10:46.474Z,1002.91
2023-03-27T02:11:46.336Z,1002.92
2023-03-27T02:12:46.326Z,1002.93
2023-03-27T02:13:46.312Z,1002.90
2023-03-27T02:14:46.305Z,1002.94
2023-03-27T02:15:46.289Z,1003.00
2023-03-27T02:16:46.497Z,1003.00
2023-03-27T02:17:46.277Z,1003.02
2023-03-27T02:18:46.244Z,1003.04
2023-03-27T02:19:46.249Z,1003.05
2023-03-27T02:20:46.224Z,1003.08
2023-03-27T02:21:46.210Z,1003.07
2023-03-27T02:22:46.198Z,1003.13
2023-03-27T02:23:46.183Z,1003.14
2023-03-27T02:24:46.181Z,1003.16
2023-03-27T02:25:46.159Z,1003.16
2023-03-27T02:26:46.145Z,1003.23
2023-03-27T02:27:46.135Z,1003.19
2023-03-27T02:28:46.134Z,1003.19
2023-03-27T02:29:46.109Z,1003.24
2023-03-27T02:30:46.092Z,1003.23
2023-03-27T02:31:46.147Z,1003.29
2023-03-27T02:32:46.201Z,1003.31
2023-03-27T02:33:46.116Z,1003.30
2023-03-27T02:34:46.043Z,1003.33
2023-03-27T02:35:46.125Z,1003.31
2023-03-27T02:36:46.016Z,1003.32
2023-03-27T02:37:46.003Z,1003.36
2023-03-27T02:38:45.987Z,1003.37
2023-03-27T02:39:45.978Z,1003.36
2023-03-27T02:40:45.978Z,1003.38
2023-03-27T02:41:45.959Z,1003.41
2023-03-27T02:42:45.942Z,1003.37
2023-03-27T02:43:45.922Z,1003.41
2023-03-27T02:44:47.364Z,1003.41
2023-03-27T02:45:45.907Z,1003.45
2023-03-27T02:46:45.886Z,1003.44
2023-03-27T02:47:45.947Z,1003.50
2023-03-27T02:48:45.859Z,1003.51
2023-03-27T02:49:45.846Z,1003.53
2023-03-27T02:50:45.845Z,1003.57
2023-03-27T02:51:45.834Z,1003.58
2023-03-27T02:52:45.823Z,1003.61
2023-03-27T02:53:45.793Z,1003.58
2023-03-27T02:54:45.787Z,1003.63
2023-03-27T02:55:45.779Z,1003.69
2023-03-27T02:56:45.786Z,1003.74
2023-03-27T02:57:52.031Z,1003.72
2023-03-27T02:58:45.729Z,1003.76
2023-03-27T02:59:45.730Z,1003.75
2023-03-27T03:00:45.712Z,1003.78
2023-03-27T03:01:45.758Z,1003.81
2023-03-27T03:02:45.800Z,1003.82
2023-03-27T03:03:45.665Z,1003.77
2023-03-27T03:04:45.656Z,1003.79
2023-03-27T03:05:45.640Z,1003.80
2023-03-27T03:06:45.630Z,1003.79
2023-03-27T03:07:45.613Z,1003.82
2023-03-27T03:08:45.598Z,1003.86
2023-03-27T03:09:45.593Z,1003.88
2023-03-27T03:10:45.577Z,1003.87
2023-03-27T03:11:45.562Z,1003.91
2023-03-27T03:12:45.552Z,1003.94
2023-03-27T03:13:45.556Z,1003.96
2023-03-27T03:14:45.526Z,1004.00
2023-03-27T03:15:45.507Z,1004.01
2023-03-27T03:16:45.506Z,1004.07
2023-03-27T03:17:45.495Z,1004.06
2023-03-27T03:18:45.480Z,1004.05
2023-03-27T03:19:45.469Z,1004.11
2023-03-27T03:20:45.448Z,1004.10
2023-03-27T03:21:45.431Z,1004.11
2023-03-27T03:22:45.417Z,1004.13
2023-03-27T03:23:58.182Z,1004.14
2023-03-27T03:24:45.392Z,1004.12
2023-03-27T03:25:45.379Z,1004.12
2023-03-27T03:26:45.372Z,1004.13
2023-03-27T03:27:45.349Z,1004.15
2023-03-27T03:29:01.035Z,1004.14
2023-03-27T03:29:45.327Z,1004.12
2023-03-27T03:30:45.338Z,1004.16
2023-03-27T03:31:45.298Z,1004.18
2023-03-27T03:32:45.296Z,1004.23
2023-03-27T03:33:45.268Z,1004.24
2023-03-27T03:34:45.261Z,1004.25
2023-03-27T03:35:45.267Z,1004.27
2023-03-27T03:36:45.234Z,1004.26
2023-03-27T03:37:45.217Z,1004.26
2023-03-27T03:38:45.203Z,1004.32
2023-03-27T03:39:45.201Z,1004.31
2023-03-27T03:40:45.178Z,1004.36
2023-03-27T03:41:45.166Z,1004.33
2023-03-27T03:42:45.150Z,1004.35
2023-03-27T03:43:45.135Z,1004.36
2023-03-27T03:44:45.123Z,1004.37
2023-03-27T03:45:45.144Z,1004.37
2023-03-27T03:46:45.099Z,1004.36
2023-03-27T03:47:45.129Z,1004.40
2023-03-27T03:48:45.073Z,1004.39
2023-03-27T03:49:45.063Z,1004.39
2023-03-27T03:50:45.042Z,1004.41
2023-03-27T03:51:45.029Z,1004.47
2023-03-27T03:52:45.016Z,1004.47
2023-03-27T03:53:45.007Z,1004.50
2023-03-27T03:54:46.745Z,1004.50
2023-03-27T03:55:44.978Z,1004.54
2023-03-27T03:56:45.005Z,1004.52
2023-03-27T03:57:44.951Z,1004.55
2023-03-27T03:58:44.941Z,1004.57
2023-03-27T03:59:44.932Z,1004.64
2023-03-27T04:00:44.904Z,1004.62
2023-03-27T04:01:44.915Z,1004.63
2023-03-27T04:02:44.943Z,1004.61
2023-03-27T04:03:44.965Z,1004.62
2023-03-27T04:04:46.578Z,1004.66
2023-03-27T04:05:44.870Z,1004.69
2023-03-27T04:06:44.845Z,1004.66
2023-03-27T04:07:44.811Z,1004.68
2023-03-27T04:08:44.812Z,1004.68
2023-03-27T04:09:44.786Z,1004.69
2023-03-27T04:10:44.776Z,1004.72
2023-03-27T04:11:44.806Z,1004.72
2023-03-27T04:12:44.739Z,1004.73
2023-03-27T04:13:44.729Z,1004.73
2023-03-27T04:14:44.721Z,1004.76
2023-03-27T04:15:44.729Z,1004.77
2023-03-27T04:16:44.703Z,1004.83
2023-03-27T04:17:44.726Z,1004.83
2023-03-27T04:18:44.732Z,1004.86
2023-03-27T04:19:44.654Z,1004.89
2023-03-27T04:20:44.633Z,1004.91
2023-03-27T04:21:44.627Z,1004.89
2023-03-27T04:22:44.607Z,1004.90
2023-03-27T04:23:44.593Z,1004.88
2023-03-27T04:24:44.613Z,1004.87
2023-03-27T04:25:44.596Z,1004.92
2023-03-27T04:26:44.558Z,1004.93
2023-03-27T04:27:44.544Z,1004.96
2023-03-27T04:28:44.530Z,1004.99
2023-03-27T04:29:44.516Z,1004.98
2023-03-27T04:30:44.541Z,1004.95
2023-03-27T04:31:44.579Z,1005.02
2023-03-27T04:32:44.489Z,1005.03
2023-03-27T04:33:44.464Z,1005.04
2023-03-27T04:34:44.466Z,1005.10
2023-03-27T04:35:44.453Z,1005.12
2023-03-27T04:36:44.427Z,1005.13
2023-03-27T04:37:44.409Z,1005.14
2023-03-27T04:38:44.396Z,1005.17
2023-03-27T04:39:44.384Z,1005.16
2023-03-27T04:40:44.365Z,1005.18
2023-03-27T04:41:44.352Z,1005.19
2023-03-27T04:42:44.336Z,1005.20
2023-03-27T04:43:44.340Z,1005.22
2023-03-27T04:44:44.359Z,1005.22
2023-03-27T04:45:44.307Z,1005.18
2023-03-27T04:46:44.383Z,1005.16
2023-03-27T04:47:44.334Z,1005.15
2023-03-27T04:48:44.260Z,1005.18
2023-03-27T04:49:44.246Z,1005.21
2023-03-27T04:50:44.231Z,1005.25
2023-03-27T04:51:44.219Z,1005.22
2023-03-27T04:52:44.220Z,1005.18
2023-03-27T04:53:44.187Z,1005.18
2023-03-27T04:54:44.178Z,1005.20
2023-03-27T04:55:44.171Z,1005.21
2023-03-27T04:56:44.158Z,1005.22
2023-03-27T04:57:44.137Z,1005.23
2023-03-27T04:58:44.132Z,1005.26
2023-03-27T04:59:44.106Z,1005.28
2023-03-27T05:00:44.120Z,1005.25
2023-03-27T05:01:44.124Z,1005.28
2023-03-27T05:02:44.098Z,1005.29
2023-03-27T05:03:44.163Z,1005.35
2023-03-27T05:04:44.043Z,1005.38
2023-03-27T05:05:44.037Z,1005.41
2023-03-27T05:06:44.013Z,1005.43
2023-03-27T05:07:43.997Z,1005.46
2023-03-27T05:08:43.980Z,1005.44
2023-03-27T05:09:43.971Z,1005.52
2023-03-27T05:10:43.953Z,1005.50
2023-03-27T05:11:43.942Z,1005.54
2023-03-27T05:12:43.929Z,1005.59
2023-03-27T05:13:43.913Z,1005.57
2023-03-27T05:14:43.900Z,1005.55
2023-03-27T05:15:43.887Z,1005.60
2023-03-27T05:16:43.905Z,1005.61
2023-03-27T05:17:43.896Z,1005.59
2023-03-27T05:18:43.847Z,1005.59
2023-03-27T05:19:43.834Z,1005.64
2023-03-27T05:20:43.822Z,1005.64
2023-03-27T05:21:43.802Z,1005.65
2023-03-27T05:22:43.797Z,1005.69
2023-03-27T05:23:43.772Z,1005.71
2023-03-27T05:24:43.766Z,1005.72
2023-03-27T05:25:43.746Z,1005.73
2023-03-27T05:26:43.734Z,1005.76
2023-03-27T05:27:43.723Z,1005.75
2023-03-27T05:28:43.712Z,1005.78
2023-03-27T05:29:47.578Z,1005.79
2023-03-27T05:30:43.748Z,1005.82
2023-03-27T05:31:43.672Z,1005.79
2023-03-27T05:32:43.685Z,1005.80
2023-03-27T05:33:43.638Z,1005.85
2023-03-27T05:34:43.624Z,1005.85
2023-03-27T05:35:43.640Z,1005.83
2023-03-27T05:36:43.593Z,1005.85
2023-03-27T05:37:43.582Z,1005.89
2023-03-27T05:38:43.574Z,1005.87
2023-03-27T05:39:43.555Z,1005.88
2023-03-27T05:40:43.545Z,1005.93
2023-03-27T05:41:43.524Z,1005.95
2023-03-27T05:42:43.512Z,1005.99
2023-03-27T05:43:43.503Z,1005.99
2023-03-27T05:44:43.481Z,1006.01
2023-03-27T05:45:43.490Z,1006.06
2023-03-27T05:46:43.477Z,1006.07
2023-03-27T05:47:43.467Z,1006.08
2023-03-27T05:48:43.433Z,1006.10
2023-03-27T05:49:43.415Z,1006.12
2023-03-27T05:50:43.402Z,1006.12
2023-03-27T05:51:46.867Z,1006.14
2023-03-27T05:52:43.408Z,1006.14
2023-03-27T05:53:43.360Z,1006.12
2023-03-27T05:54:43.347Z,1006.22
2023-03-27T05:55:43.357Z,1006.21
2023-03-27T05:56:43.431Z,1006.27
2023-03-27T05:57:43.332Z,1006.29
2023-03-27T05:58:43.297Z,1006.32
2023-03-27T05:59:43.298Z,1006.28
2023-03-27T06:00:43.278Z,1006.34
2023-03-27T06:01:43.279Z,1006.37
2023-03-27T06:02:43.505Z,1006.32
2023-03-27T06:03:43.360Z,1006.43
2023-03-27T06:04:43.269Z,1006.48
2023-03-27T06:05:43.211Z,1006.44
2023-03-27T06:06:43.207Z,1006.47
2023-03-27T06:07:43.647Z,1006.49
2023-03-27T06:08:43.177Z,1006.49
2023-03-27T06:09:43.164Z,1006.51
2023-03-27T06:10:43.163Z,1006.50
2023-03-27T06:11:43.147Z,1006.49
2023-03-27T06:12:43.166Z,1006.51
2023-03-27T06:13:43.123Z,1006.51
2023-03-27T06:14:43.105Z,1006.50
2023-03-27T06:15:43.163Z,1006.55
2023-03-27T06:16:43.087Z,1006.55
2023-03-27T06:17:43.092Z,1006.59
2023-03-27T06:18:43.063Z,1006.64
2023-03-27T06:19:43.049Z,1006.65
2023-03-27T06:20:43.049Z,1006.63
2023-03-27T06:21:43.026Z,1006.66
2023-03-27T06:22:43.018Z,1006.71
2023-03-27T06:23:43.011Z,1006.74
2023-03-27T06:24:42.995Z,1006.72
2023-03-27T06:25:42.999Z,1006.74
2023-03-27T06:26:42.978Z,1006.70
2023-03-27T06:27:42.972Z,1006.76
2023-03-27T06:28:42.953Z,1006.77
2023-03-27T06:29:42.941Z,1006.85
2023-03-27T06:30:42.937Z,1006.84
2023-03-27T06:31:42.974Z,1006.80
2023-03-27T06:32:42.972Z,1006.82
2023-03-27T06:33:42.905Z,1006.85
2023-03-27T06:34:42.888Z,1006.84
2023-03-27T06:35:42.924Z,1006.84
2023-03-27T06:36:42.863Z,1006.79
2023-03-27T06:37:42.957Z,1006.84
2023-03-27T06:38:42.876Z,1006.84
2023-03-27T06:39:42.844Z,1006.84
2023-03-27T06:40:42.826Z,1006.89
2023-03-27T06:41:42.822Z,1006.87
2023-03-27T06:42:43.335Z,1006.87
2023-03-27T06:43:42.793Z,1006.89
2023-03-27T06:44:42.795Z,1006.91
2023-03-27T06:45:42.777Z,1006.96
2023-03-27T06:46:45.570Z,1006.99
2023-03-27T06:47:53.791Z,1006.99
2023-03-27T06:48:42.789Z,1006.99
2023-03-27T06:49:42.723Z,1006.98
2023-03-27T06:50:42.714Z,1007.01
2023-03-27T06:51:42.712Z,1007.01
2023-03-27T06:52:42.692Z,1007.00
2023-03-27T06:53:42.722Z,1007.04
2023-03-27T06:54:42.676Z,1007.07
2023-03-27T06:55:42.664Z,1007.04
2023-03-27T06:56:42.643Z,1007.00
2023-03-27T06:57:42.642Z,1007.02
2023-03-27T06:58:42.623Z,1007.01
2023-03-27T06:59:42.609Z,1007.04
2023-03-27T07:00:42.630Z,1007.07
2023-03-27T07:01:42.636Z,1007.16
2023-03-27T07:02:42.602Z,1007.14
2023-03-27T07:03:42.560Z,1007.13
2023-03-27T07:04:48.409Z,1007.17
2023-03-27T07:05:42.609Z,1007.21
2023-03-27T07:06:42.518Z,1007.22
2023-03-27T07:07:42.569Z,1007.15
2023-03-27T07:08:42.529Z,1007.18
2023-03-27T07:09:42.494Z,1007.22
2023-03-27T07:10:42.470Z,1007.19
2023-03-27T07:11:42.473Z,1007.20
2023-03-27T07:12:42.498Z,1007.17
2023-03-27T07:13:42.619Z,1007.20
2023-03-27T07:14:42.423Z,1007.21
2023-03-27T07:15:42.415Z,1007.24
2023-03-27T07:16:42.491Z,1007.25
2023-03-27T07:17:49.031Z,1007.26
2023-03-27T07:18:42.380Z,1007.26
2023-03-27T07:19:42.362Z,1007.30
2023-03-27T07:20:42.350Z,1007.33
2023-03-27T07:21:42.343Z,1007.31
2023-03-27T07:22:42.327Z,1007.29
2023-03-27T07:23:42.313Z,1007.31
2023-03-27T07:24:42.301Z,1007.28
2023-03-27T07:25:42.297Z,1007.31
2023-03-27T07:26:42.284Z,1007.35
2023-03-27T07:27:42.267Z,1007.30
2023-03-27T07:28:42.253Z,1007.33
2023-03-27T07:29:42.243Z,1007.32
2023-03-27T07:30:42.231Z,1007.38
2023-03-27T07:31:55.890Z,1007.37
2023-03-27T07:32:42.308Z,1007.43
2023-03-27T07:33:42.299Z,1007.40
2023-03-27T07:34:42.180Z,1007.36
2023-03-27T07:35:42.245Z,1007.40
2023-03-27T07:36:42.161Z,1007.47
2023-03-27T07:37:42.147Z,1007.43
2023-03-27T07:38:42.168Z,1007.45
2023-03-27T07:39:42.140Z,1007.45
2023-03-27T07:40:42.162Z,1007.48
2023-03-27T07:41:42.220Z,1007.48
2023-03-27T07:42:42.090Z,1007.50
2023-03-27T07:43:42.084Z,1007.53
2023-03-27T07:44:42.058Z,1007.50
2023-03-27T07:45:42.168Z,1007.47
2023-03-27T07:46:42.039Z,1007.50
2023-03-27T07:47:42.055Z,1007.55
2023-03-27T07:48:42.015Z,1007.53
2023-03-27T07:49:42.004Z,1007.55
2023-03-27T07:50:41.995Z,1007.59
2023-03-27T07:51:41.981Z,1007.57
2023-03-27T07:52:41.966Z,1007.52
2023-03-27T07:53:41.954Z,1007.49
2023-03-27T07:54:41.945Z,1007.54
2023-03-27T07:55:41.928Z,1007.51
2023-03-27T07:56:41.945Z,1007.43
2023-03-27T07:57:58.072Z,1007.51
2023-03-27T07:58:41.927Z,1007.59
2023-03-27T07:59:41.881Z,1007.56
2023-03-27T08:00:41.872Z,1007.55
2023-03-27T08:01:41.871Z,1007.52
2023-03-27T08:02:41.871Z,1007.51
2023-03-27T08:03:42.059Z,1007.50
2023-03-27T08:04:41.944Z,1007.57
2023-03-27T08:05:41.809Z,1007.51
2023-03-27T08:06:41.798Z,1007.48
2023-03-27T08:07:41.782Z,1007.51
2023-03-27T08:08:41.775Z,1007.48
2023-03-27T08:09:41.760Z,1007.53
2023-03-27T08:10:41.836Z,1007.56
2023-03-27T08:11:41.736Z,1007.55
2023-03-27T08:12:41.726Z,1007.54
2023-03-27T08:13:41.713Z,1007.57
2023-03-27T08:14:41.712Z,1007.56
2023-03-27T08:15:41.683Z,1007.59
2023-03-27T08:16:41.779Z,1007.51
2023-03-27T08:17:41.753Z,1007.54
2023-03-27T08:18:41.653Z,1007.57
2023-03-27T08:19:41.637Z,1007.55
2023-03-27T08:20:41.627Z,1007.58
2023-03-27T08:21:41.637Z,1007.53
2023-03-27T08:22:41.602Z,1007.56
2023-03-27T08:23:41.584Z,1007.57
2023-03-27T08:24:41.580Z,1007.60
2023-03-27T08:25:41.564Z,1007.67
2023-03-27T08:26:41.554Z,1007.62
2023-03-27T08:27:41.542Z,1007.62
2023-03-27T08:28:41.526Z,1007.61
2023-03-27T08:29:41.518Z,1007.65
2023-03-27T08:30:41.535Z,1007.60
2023-03-27T08:31:41.488Z,1007.68
2023-03-27T08:32:41.492Z,1007.63
2023-03-27T08:33:41.475Z,1007.65
2023-03-27T08:34:41.457Z,1007.70
2023-03-27T08:35:41.489Z,1007.76
2023-03-27T08:36:41.442Z,1007.73
2023-03-27T08:37:41.455Z,1007.77
2023-03-27T08:38:41.413Z,1007.74
2023-03-27T08:39:41.395Z,1007.74
2023-03-27T08:40:41.391Z,1007.79
2023-03-27T08:41:41.382Z,1007.78
2023-03-27T08:42:41.360Z,1007.78
2023-03-27T08:43:41.352Z,1007.76
2023-03-27T08:44:41.348Z,1007.76
2023-03-27T08:45:41.326Z,1007.71
2023-03-27T08:46:41.349Z,1007.78
2023-03-27T08:47:41.336Z,1007.85
2023-03-27T08:48:41.284Z,1007.83
2023-03-27T08:49:41.277Z,1007.86
2023-03-27T08:50:41.265Z,1007.88
2023-03-27T08:51:41.484Z,1007.92
2023-03-27T08:52:41.243Z,1007.92
2023-03-27T08:53:41.234Z,1007.91
2023-03-27T08:54:41.220Z,1007.91
2023-03-27T08:55:41.213Z,1007.95
2023-03-27T08:56:41.235Z,1007.97
2023-03-27T08:57:41.186Z,1007.98
2023-03-27T08:58:41.169Z,1007.94
2023-03-27T08:59:41.156Z,1007.98
2023-03-27T09:00:41.141Z,1007.89
2023-03-27T09:01:41.245Z,1007.96
2023-03-27T09:02:41.158Z,1008.00
2023-03-27T09:03:41.186Z,1007.98
2023-03-27T09:04:41.104Z,1008.02
2023-03-27T09:05:41.084Z,1008.03
2023-03-27T09:06:41.075Z,1008.03
2023-03-27T09:07:41.068Z,1008.06
2023-03-27T09:08:41.055Z,1008.06
2023-03-27T09:09:41.043Z,1008.03
2023-03-27T09:10:41.040Z,1008.10
2023-03-27T09:11:41.019Z,1008.01
2023-03-27T09:12:41.004Z,1008.06
2023-03-27T09:13:40.993Z,1008.05
2023-03-27T09:14:40.978Z,1008.04
2023-03-27T09:15:41.011Z,1008.11
2023-03-27T09:16:41.014Z,1008.10
2023-03-27T09:17:41.021Z,1008.10
2023-03-27T09:18:40.952Z,1008.09
2023-03-27T09:19:40.931Z,1008.08
2023-03-27T09:20:40.914Z,1008.01
2023-03-27T09:21:40.899Z,1008.18
2023-03-27T09:22:40.965Z,1008.11
2023-03-27T09:23:40.873Z,1008.14
2023-03-27T09:24:40.878Z,1008.09
2023-03-27T09:25:40.853Z,1008.13
2023-03-27T09:26:40.841Z,1008.16
2023-03-27T09:27:40.827Z,1008.07
2023-03-27T09:28:40.815Z,1008.19
2023-03-27T09:29:40.834Z,1008.12
2023-03-27T09:30:40.791Z,1008.18
2023-03-27T09:31:40.794Z,1008.21
2023-03-27T09:32:40.808Z,1008.15
2023-03-27T09:33:40.761Z,1008.22
2023-03-27T09:34:40.745Z,1008.21
2023-03-27T09:35:40.749Z,1008.33
2023-03-27T09:36:40.725Z,1008.28
2023-03-27T09:37:40.710Z,1008.27
2023-03-27T09:38:40.697Z,1008.22
2023-03-27T09:39:40.685Z,1008.32
2023-03-27T09:40:40.678Z,1008.23
2023-03-27T09:41:40.667Z,1008.27
2023-03-27T09:42:40.656Z,1008.29
2023-03-27T09:43:40.643Z,1008.30
2023-03-27T09:44:40.624Z,1008.33
2023-03-27T09:45:40.644Z,1008.26
2023-03-27T09:46:40.684Z,1008.35
2023-03-27T09:47:40.680Z,1008.26
2023-03-27T09:48:40.581Z,1008.25
2023-03-27T09:49:40.566Z,1008.26
2023-03-27T09:50:40.562Z,1008.27
2023-03-27T09:51:40.546Z,1008.28
2023-03-27T09:52:40.536Z,1008.24
2023-03-27T09:53:40.528Z,1008.27
2023-03-27T09:54:40.514Z,1008.36
2023-03-27T09:55:40.501Z,1008.34
2023-03-27T09:56:40.520Z,1008.34
2023-03-27T09:57:40.478Z,1008.24
2023-03-27T09:58:40.473Z,1008.32
2023-03-27T09:59:40.473Z,1008.23
2023-03-27T10:00:40.478Z,1008.27
2023-03-27T10:01:40.445Z,1008.30
2023-03-27T10:02:40.442Z,1008.31
2023-03-27T10:03:40.442Z,1008.39
2023-03-27T10:04:40.409Z,1008.42
2023-03-27T10:05:40.385Z,1008.44
2023-03-27T10:06:40.372Z,1008.38
2023-03-27T10:07:40.359Z,1008.37
2023-03-27T10:08:40.346Z,1008.47
2023-03-27T10:09:40.340Z,1008.39
2023-03-27T10:10:40.325Z,1008.49
2023-03-27T10:11:40.319Z,1008.47
2023-03-27T10:12:40.297Z,1008.42
2023-03-27T10:13:40.290Z,1008.46
2023-03-27T10:14:40.279Z,1008.52
2023-03-27T10:15:40.269Z,1008.54
2023-03-27T10:16:40.332Z,1008.40
2023-03-27T10:17:40.338Z,1008.48
2023-03-27T10:18:40.232Z,1008.42
2023-03-27T10:19:40.229Z,1008.39
2023-03-27T10:20:40.207Z,1008.42
2023-03-27T10:21:40.204Z,1008.47
2023-03-27T10:22:40.187Z,1008.51
2023-03-27T10:23:40.249Z,1008.42
2023-03-27T10:24:44.453Z,1008.49
2023-03-27T10:25:40.164Z,1008.49
2023-03-27T10:26:40.146Z,1008.41
2023-03-27T10:27:40.147Z,1008.44
2023-03-27T10:28:40.115Z,1008.41
2023-03-27T10:29:41.359Z,1008.38
2023-03-27T10:30:40.093Z,1008.42
2023-03-27T10:31:40.113Z,1008.50
2023-03-27T10:32:40.117Z,1008.48
2023-03-27T10:33:40.057Z,1008.43
2023-03-27T10:34:40.079Z,1008.52
2023-03-27T10:35:40.076Z,1008.45
2023-03-27T10:36:40.022Z,1008.62
2023-03-27T10:37:40.011Z,1008.50
2023-03-27T10:38:40.065Z,1008.56
2023-03-27T10:39:39.989Z,1008.53
2023-03-27T10:40:39.981Z,1008.58
2023-03-27T10:41:39.968Z,1008.64
2023-03-27T10:42:39.958Z,1008.62
2023-03-27T10:43:39.940Z,1008.60
2023-03-27T10:44:39.934Z,1008.69
2023-03-27T10:45:39.961Z,1008.64
2023-03-27T10:46:39.913Z,1008.72
2023-03-27T10:47:39.921Z,1008.67
2023-03-27T10:48:39.902Z,1008.69
2023-03-27T10:49:39.878Z,1008.49
2023-03-27T10:50:39.917Z,1008.66
2023-03-27T10:51:46.495Z,1008.71
2023-03-27T10:52:39.897Z,1008.60
2023-03-27T10:53:39.946Z,1008.61
2023-03-27T10:54:39.926Z,1008.60
2023-03-27T10:55:39.802Z,1008.54
2023-03-27T10:56:39.838Z,1008.56
2023-03-27T10:57:39.796Z,1008.58
2023-03-27T10:58:39.785Z,1008.60
2023-03-27T10:59:41.895Z,1008.65
2023-03-27T11:00:39.809Z,1008.75
2023-03-27T11:01:39.828Z,1008.74
2023-03-27T11:02:39.790Z,1008.72
2023-03-27T11:03:39.785Z,1008.66
2023-03-27T11:04:39.720Z,1008.61
2023-03-27T11:05:39.756Z,1008.63
2023-03-27T11:06:40.774Z,1008.66
2023-03-27T11:07:39.676Z,1008.61
2023-03-27T11:08:39.661Z,1008.68
2023-03-27T11:09:39.686Z,1008.67
2023-03-27T11:10:39.652Z,1008.69
2023-03-27T11:11:39.626Z,1008.65
2023-03-27T11:12:39.634Z,1008.66
2023-03-27T11:13:39.609Z,1008.70
2023-03-27T11:14:39.595Z,1008.77
2023-03-27T11:15:39.593Z,1008.65
2023-03-27T11:16:39.650Z,1008.69
2023-03-27T11:17:39.580Z,1008.73
2023-03-27T11:18:39.554Z,1008.72
2023-03-27T11:19:39.546Z,1008.74
2023-03-27T11:20:39.537Z,1008.67
2023-03-27T11:21:39.521Z,1008.67
2023-03-27T11:22:39.511Z,1008.61
2023-03-27T11:23:39.506Z,1008.69
2023-03-27T11:24:39.495Z,1008.77
2023-03-27T11:25:39.474Z,1008.74
2023-03-27T11:26:39.466Z,1008.77
2023-03-27T11:27:39.475Z,1008.77
2023-03-27T11:28:39.444Z,1008.78
2023-03-27T11:29:39.446Z,1008.75
2023-03-27T11:30:39.488Z,1008.86
2023-03-27T11:31:39.540Z,1008.82
2023-03-27T11:32:39.525Z,1008.73
2023-03-27T11:33:39.390Z,1008.79
2023-03-27T11:34:39.378Z,1008.74
2023-03-27T11:35:39.379Z,1008.82
2023-03-27T11:36:39.360Z,1008.62
2023-03-27T11:37:39.345Z,1008.77
2023-03-27T11:38:39.350Z,1008.82
2023-03-27T11:39:39.335Z,1008.85
2023-03-27T11:40:39.317Z,1008.80
2023-03-27T11:41:39.322Z,1008.81
2023-03-27T11:42:39.294Z,1008.85
2023-03-27T11:43:39.279Z,1008.81
2023-03-27T11:44:39.274Z,1008.82
2023-03-27T11:45:39.267Z,1008.88
2023-03-27T11:46:39.281Z,1008.87
2023-03-27T11:47:39.322Z,1008.89
2023-03-27T11:48:39.238Z,1008.88
2023-03-27T11:49:39.227Z,1008.87
2023-03-27T11:50:39.260Z,1008.82
2023-03-27T11:51:39.203Z,1008.80
2023-03-27T11:52:39.228Z,1008.76
2023-03-27T11:53:39.196Z,1008.82
2023-03-27T11:54:39.163Z,1008.82
2023-03-27T11:55:39.158Z,1008.79
2023-03-27T11:56:39.165Z,1008.86
2023-03-27T11:57:39.131Z,1008.75
2023-03-27T11:58:39.122Z,1008.83
2023-03-27T11:59:39.107Z,1008.80
2023-03-27T12:00:39.100Z,1008.82
2023-03-27T12:01:39.102Z,1008.86
2023-03-27T12:02:39.134Z,1008.87
2023-03-27T12:03:39.156Z,1008.83
2023-03-27T12:04:39.055Z,1008.89
2023-03-27T12:05:39.059Z,1008.85